Time;durP1;ratioP1;P1;durP2;ratioP2;P2;SDS_P1;SDS_P2;PMS_P1;PMS_P2;Temp;Humidity;BMP_temperature;BMP_pressure;BME280_temperature;BME280_humidity;BME280_pressure;Samples;Min_cycle;Max_cycle;Signal;HPM_P1;HPM_P2
2023/03/17 00:01:02;;;;;;;7.90;4.97;;;0.00;1.00;;;;;;5107307;28;20254;-67
2023/03/17 00:03:41;;;;;;;9.75;5.13;;;-0.10;99.90;;;;;;5096751;28;20057;-67
2023/03/17 00:06:23;;;;;;;13.30;5.07;;;-0.20;99.90;;;;;;5094953;28;20063;-66
2023/03/17 00:09:00;;;;;;;11.55;5.38;;;-0.30;99.90;;;;;;5146676;28;20050;-66
2023/03/17 00:11:33;;;;;;;8.85;4.97;;;-0.50;99.90;;;;;;5113621;28;20050;-66
2023/03/17 00:14:05;;;;;;;16.60;4.53;;;-0.50;99.90;;;;;;5130671;28;20038;-66
2023/03/17 00:16:43;;;;;;;11.82;4.80;;;-0.60;99.90;;;;;;5096442;29;20398;-65
2023/03/17 00:19:29;;;;;;;9.15;5.13;;;-0.50;1.00;;;;;;5095675;29;20058;-65
2023/03/17 00:22:04;;;;;;;7.32;4.68;;;-0.60;1.00;;;;;;5112366;29;20051;-65
2023/03/17 00:24:42;;;;;;;10.02;4.38;;;-0.60;1.00;;;;;;5095008;29;20091;-65
2023/03/17 00:27:16;;;;;;;8.73;4.75;;;-0.60;1.00;;;;;;5120298;28;20035;-65
2023/03/17 00:29:48;;;;;;;16.15;5.50;;;-0.70;1.00;;;;;;5100840;28;20047;-67
2023/03/17 00:32:22;;;;;;;9.60;4.88;;;-0.70;1.00;;;;;;5112166;28;20042;-65
2023/03/17 00:34:57;;;;;;;9.68;4.82;;;-0.70;1.00;;;;;;5119640;28;20523;-65
2023/03/17 00:37:31;;;;;;;9.13;4.90;;;-0.60;1.00;;;;;;5110571;29;20047;-65
2023/03/17 00:40:14;;;;;;;12.05;5.43;;;-0.70;1.00;;;;;;5126429;28;20259;-65
2023/03/17 00:42:48;;;;;;;9.45;5.10;;;-0.70;1.00;;;;;;5144526;28;20416;-65
2023/03/17 00:45:24;;;;;;;9.00;5.03;;;-0.60;1.00;;;;;;5124282;28;20035;-66
2023/03/17 00:47:55;;;;;;;14.82;5.68;;;-0.60;1.00;;;;;;5106561;28;20061;-66
2023/03/17 00:50:28;;;;;;;9.40;5.40;;;-0.50;99.90;;;;;;5111361;29;20042;-65
2023/03/17 00:53:01;;;;;;;12.90;4.75;;;-0.60;99.90;;;;;;5112305;29;20250;-65
2023/03/17 00:55:32;;;;;;;7.45;4.22;;;-0.70;99.90;;;;;;5130244;28;20035;-65
2023/03/17 00:58:17;;;;;;;10.82;4.55;;;-0.70;1.00;;;;;;5131630;28;20049;-66
2023/03/17 01:00:54;;;;;;;10.93;4.55;;;-0.70;1.00;;;;;;5178762;23;20123;-71
2023/03/17 01:03:31;;;;;;;7.63;3.75;;;-0.80;1.00;;;;;;5220505;23;20046;-72
2023/03/17 01:06:09;;;;;;;13.98;4.30;;;-0.80;1.00;;;;;;5125695;28;20105;-73
2023/03/17 01:08:51;;;;;;;7.13;4.00;;;-0.80;1.00;;;;;;5115079;28;20038;-70
2023/03/17 01:11:25;;;;;;;7.57;3.60;;;-0.70;1.00;;;;;;5130676;28;20046;-68
2023/03/17 01:13:57;;;;;;;6.53;3.85;;;-0.60;1.00;;;;;;5126677;28;20447;-71
2023/03/17 01:16:33;;;;;;;6.43;3.53;;;-0.60;1.00;;;;;;5114718;28;20043;-69
2023/03/17 01:19:14;;;;;;;6.60;3.65;;;-0.80;1.00;;;;;;5133130;28;20489;-71
2023/03/17 01:21:51;;;;;;;5.90;3.85;;;-0.80;1.00;;;;;;5117338;28;20042;-70
2023/03/17 01:24:25;;;;;;;8.65;4.60;;;-0.80;34.60;;;;;;5130319;28;20039;-70
2023/03/17 01:27:03;;;;;;;5.70;4.32;;;-0.90;1.00;;;;;;5135029;28;20047;-69
2023/03/17 01:29:45;;;;;;;12.20;4.90;;;-1.00;1.00;;;;;;5123448;28;20229;-70
2023/03/17 01:32:17;;;;;;;8.98;4.30;;;-1.00;1.00;;;;;;5123727;28;20047;-72
2023/03/17 01:34:52;;;;;;;7.05;3.75;;;-1.00;99.90;;;;;;5129554;28;20031;-69
2023/03/17 01:37:25;;;;;;;15.02;4.07;;;-1.00;24.90;;;;;;5134256;28;20047;-68
2023/03/17 01:39:57;;;;;;;6.57;4.18;;;-0.90;1.00;;;;;;5103012;28;20057;-69
2023/03/17 01:42:28;;;;;;;6.53;3.92;;;-1.00;1.00;;;;;;5118938;28;20039;-68
2023/03/17 01:45:46;;;;;;;6.90;4.07;;;-1.10;1.00;;;;;;5115977;28;20051;-70
2023/03/17 01:48:24;;;;;;;4.85;3.40;;;-1.20;1.00;;;;;;5115952;28;20045;-72
2023/03/17 01:51:00;;;;;;;5.38;3.17;;;-1.20;1.00;;;;;;5117249;28;20031;-70
2023/03/17 01:53:44;;;;;;;5.93;3.90;;;-1.20;1.00;;;;;;5111070;28;20046;-72
2023/03/17 01:56:16;;;;;;;7.53;3.90;;;-1.20;50.90;;;;;;5134430;28;20236;-70
2023/03/17 01:58:59;;;;;;;4.82;3.00;;;-1.20;1.00;;;;;;5134700;28;20046;-71
2023/03/17 02:01:58;;;;;;;5.88;3.80;;;-1.10;1.00;;;;;;5115753;28;20039;-75
2023/03/17 02:04:36;;;;;;;7.45;3.75;;;-1.10;99.90;;;;;;5087233;28;20055;-71
2023/03/17 02:07:17;;;;;;;15.45;4.43;;;-1.20;20.90;;;;;;5112010;29;20035;-69
2023/03/17 02:09:58;;;;;;;5.22;3.78;;;-1.10;19.10;;;;;;5099000;29;20054;-72
2023/03/17 02:12:29;;;;;;;5.00;3.42;;;-1.10;1.00;;;;;;5099194;29;20445;-71
2023/03/17 02:15:06;;;;;;;6.07;3.70;;;-1.10;1.00;;;;;;5099186;29;20365;-72
2023/03/17 02:17:40;;;;;;;7.38;4.28;;;-1.10;1.00;;;;;;5130484;28;20070;-71
2023/03/17 02:20:14;;;;;;;9.63;4.82;;;-1.20;1.00;;;;;;5097269;29;20061;-70
2023/03/17 02:22:54;;;;;;;5.43;3.67;;;-1.20;99.90;;;;;;5098292;29;20033;-70
2023/03/17 02:25:30;;;;;;;10.60;4.20;;;-1.30;99.90;;;;;;5107239;28;20593;-72
2023/03/17 02:28:13;;;;;;;6.78;4.57;;;-1.30;99.90;;;;;;5114506;29;20119;-73
2023/03/17 02:30:47;;;;;;;10.05;4.18;;;-1.40;99.90;;;;;;5079394;29;20411;-70
2023/03/17 02:33:18;;;;;;;7.82;3.90;;;-1.40;99.90;;;;;;5096710;29;20073;-70
2023/03/17 02:35:51;;;;;;;8.52;3.63;;;-1.30;99.90;;;;;;5114220;28;20039;-71
2023/03/17 02:38:24;;;;;;;9.23;3.90;;;-1.30;99.90;;;;;;5104722;29;20061;-71
2023/03/17 02:40:56;;;;;;;6.13;3.25;;;-1.30;99.90;;;;;;5097747;29;20047;-72
2023/03/17 02:43:29;;;;;;;7.35;4.25;;;-1.30;1.00;;;;;;5098839;29;20543;-70
2023/03/17 02:46:07;;;;;;;7.10;3.15;;;-1.30;1.00;;;;;;5112192;29;20051;-72
2023/03/17 02:48:46;;;;;;;7.18;3.80;;;-1.30;1.00;;;;;;5112808;29;20126;-70
2023/03/17 06:00:36;;;;;;;6.10;3.28;;;2.00;99.90;;;;;;5116706;28;20752;-70
2023/03/17 06:03:10;;;;;;;7.38;2.67;;;2.40;1.00;;;;;;5116388;28;20050;-71
2023/03/17 06:05:49;;;;;;;5.00;2.95;;;2.60;1.00;;;;;;5119622;28;20058;-71
2023/03/17 06:08:21;;;;;;;5.95;3.17;;;2.80;1.00;;;;;;5114195;28;20052;-72
2023/03/17 06:10:55;;;;;;;8.23;3.60;;;2.80;99.90;;;;;;5117023;28;20062;-70
2023/03/17 06:13:37;;;;;;;7.63;3.45;;;3.00;99.90;;;;;;5132475;28;20046;-72
2023/03/17 06:16:13;;;;;;;8.32;3.80;;;3.10;35.40;;;;;;5117119;28;20039;-68
2023/03/17 06:18:48;;;;;;;6.95;3.50;;;3.20;1.00;;;;;;5118615;28;20049;-72
2023/03/17 06:21:20;;;;;;;9.73;3.50;;;3.30;1.00;;;;;;5119684;28;20031;-71
2023/03/17 06:23:54;;;;;;;5.60;3.65;;;3.30;1.00;;;;;;5101776;28;20060;-74
2023/03/17 06:26:27;;;;;;;6.13;3.10;;;3.40;1.00;;;;;;5113468;28;20390;-71
2023/03/17 06:28:58;;;;;;;5.18;3.40;;;3.60;1.00;;;;;;5084154;28;20209;-73
2023/03/17 06:31:32;;;;;;;4.53;3.05;;;3.60;1.00;;;;;;5114433;28;20247;-70
2023/03/17 06:34:04;;;;;;;5.00;3.17;;;3.70;99.90;;;;;;5133763;28;20039;-71
2023/03/17 06:36:38;;;;;;;4.32;2.60;;;3.80;99.90;;;;;;5116904;28;20095;-69
2023/03/17 06:39:09;;;;;;;4.15;2.30;;;4.00;99.90;;;;;;5117307;28;20037;-74
2023/03/17 06:41:41;;;;;;;7.50;2.25;;;4.10;99.90;;;;;;5147802;28;20038;-75
2023/03/17 06:44:15;;;;;;;7.30;2.65;;;4.30;99.90;;;;;;5117839;28;20033;-71
2023/03/17 06:46:48;;;;;;;9.05;2.53;;;4.40;1.00;;;;;;5133437;28;20073;-75
2023/03/17 06:49:19;;;;;;;7.18;3.10;;;4.50;1.00;;;;;;5118031;28;20042;-73
2023/03/17 06:51:54;;;;;;;10.73;2.55;;;4.70;1.00;;;;;;5118017;28;20310;-73
2023/03/17 06:54:28;;;;;;;5.10;2.38;;;5.00;1.00;;;;;;5101948;28;20109;-72
2023/03/17 06:57:02;;;;;;;6.53;2.28;;;5.10;99.90;;;;;;5113639;28;20041;-73
2023/03/17 06:59:34;;;;;;;4.70;2.38;;;5.30;1.00;;;;;;5113141;29;20050;-70
2023/03/17 07:02:09;;;;;;;4.68;2.63;;;5.50;1.00;;;;;;5108225;28;20035;-72
2023/03/17 07:04:43;;;;;;;4.38;2.70;;;5.70;1.00;;;;;;5121806;28;20039;-73
2023/03/17 07:07:15;;;;;;;2.78;2.38;;;6.00;1.00;;;;;;5096928;28;20047;-71
2023/03/17 07:09:47;;;;;;;6.35;2.25;;;6.20;1.00;;;;;;5115661;28;20346;-73
2023/03/17 07:12:21;;;;;;;4.35;2.05;;;6.40;1.00;;;;;;5115361;28;20038;-73
2023/03/17 07:14:57;;;;;;;9.68;2.95;;;6.70;99.90;;;;;;5114260;28;20031;-74
2023/03/17 07:17:29;;;;;;;2.58;2.00;;;6.90;1.00;;;;;;5100655;28;20061;-75
2023/03/17 07:20:01;;;;;;;5.65;2.92;;;7.10;1.00;;;;;;5131746;28;20031;-72
2023/03/17 07:22:32;;;;;;;4.53;2.58;;;7.40;1.00;;;;;;5120813;28;20042;-72
2023/03/17 07:25:08;;;;;;;4.35;2.33;;;7.50;1.00;;;;;;5093337;28;20047;-71
2023/03/17 07:27:40;;;;;;;5.00;2.28;;;7.60;1.00;;;;;;5090716;28;20042;-71
2023/03/17 07:30:13;;;;;;;7.20;2.45;;;7.60;1.00;;;;;;5134973;28;20049;-73
2023/03/17 07:32:46;;;;;;;4.88;2.50;;;7.80;1.00;;;;;;5098394;28;20055;-73
2023/03/17 07:35:18;;;;;;;4.05;2.22;;;8.00;1.00;;;;;;5103048;28;20241;-72
2023/03/17 07:37:54;;;;;;;6.85;2.67;;;8.20;1.00;;;;;;5115965;28;20038;-69
2023/03/17 07:40:26;;;;;;;4.78;2.13;;;8.10;1.00;;;;;;5098587;28;20053;-72
2023/03/17 07:42:58;;;;;;;4.07;2.35;;;8.20;1.00;;;;;;5132740;28;20602;-71
2023/03/17 07:45:33;;;;;;;5.50;2.45;;;8.30;1.00;;;;;;5111400;28;20372;-73
2023/03/17 07:48:07;;;;;;;4.53;2.47;;;8.40;99.90;;;;;;5115369;28;20026;-75
2023/03/17 07:50:39;;;;;;;4.07;2.13;;;8.50;99.90;;;;;;5114249;28;20038;-71
2023/03/17 07:53:10;;;;;;;3.83;2.45;;;8.40;99.90;;;;;;5114045;28;20076;-74
2023/03/17 07:55:44;;;;;;;4.95;2.35;;;8.40;99.90;;;;;;5114821;28;20462;-72
2023/03/17 07:58:19;;;;;;;4.30;2.78;;;8.60;99.90;;;;;;5104629;28;20043;-71
2023/03/17 08:00:50;;;;;;;2.63;1.90;;;8.70;99.90;;;;;;5094393;28;20043;-73
2023/03/17 08:03:25;;;;;;;3.83;2.25;;;8.90;99.90;;;;;;5121054;28;20557;-72
2023/03/17 08:06:04;;;;;;;3.05;2.38;;;9.00;99.90;;;;;;5099732;29;20382;-72
2023/03/17 08:08:41;;;;;;;3.38;2.20;;;9.00;99.90;;;;;;5125500;28;20030;-73
2023/03/17 08:11:19;;;;;;;8.35;2.50;;;9.20;99.90;;;;;;5089823;29;20054;-71
2023/03/17 08:13:53;;;;;;;2.72;2.25;;;9.20;99.90;;;;;;5112298;28;20051;-75
2023/03/17 08:16:26;;;;;;;2.22;1.40;;;9.20;99.90;;;;;;5120926;28;20045;-72
2023/03/17 08:19:03;;;;;;;3.92;2.50;;;9.10;99.90;;;;;;5094290;29;20406;-73
2023/03/17 08:21:40;;;;;;;3.75;1.88;;;9.00;99.90;;;;;;5125590;28;20047;-71
2023/03/17 08:24:17;;;;;;;;;;;9.10;99.90;;;;;;5109999;29;20039;-69
2023/03/17 08:26:51;;;;;;;5.57;2.45;;;9.30;99.90;;;;;;5094473;29;19944;-75
2023/03/17 08:29:27;;;;;;;4.60;2.22;;;9.50;62.60;;;;;;5117576;28;20048;-74
2023/03/17 08:32:00;;;;;;;5.97;2.60;;;9.60;66.80;;;;;;5144347;28;20053;-70
2023/03/17 08:34:31;;;;;;;4.10;2.53;;;9.40;1.00;;;;;;5094831;28;20153;-74
2023/03/17 08:37:14;;;;;;;3.95;2.05;;;9.60;74.10;;;;;;5092277;29;20556;-71
2023/03/17 08:39:51;;;;;;;4.10;1.95;;;9.70;99.90;;;;;;5076775;29;20383;-73
2023/03/17 08:42:23;;;;;;;5.88;2.38;;;9.80;71.70;;;;;;5110386;28;20058;-73
2023/03/17 08:44:54;;;;;;;7.22;2.92;;;9.90;99.90;;;;;;5094239;29;20020;-73
2023/03/17 08:47:34;;;;;;;5.63;2.10;;;10.10;99.90;;;;;;5091550;29;20327;-71
2023/03/17 08:50:19;;;;;;;2.70;1.90;;;10.00;99.90;;;;;;5109257;29;20054;-71
2023/03/17 08:52:55;;;;;;;4.70;1.88;;;9.90;99.90;;;;;;5094065;28;20051;-71
2023/03/17 08:55:30;;;;;;;2.72;2.08;;;10.00;99.90;;;;;;5108467;28;20347;-75
2023/03/17 08:58:04;;;;;;;3.45;2.65;;;10.00;99.90;;;;;;5112050;28;20031;-69
2023/03/17 09:00:41;;;;;;;3.45;2.60;;;10.20;99.90;;;;;;5090246;29;20069;-71
2023/03/17 09:03:12;;;;;;;2.72;2.10;;;10.40;99.90;;;;;;5090878;29;20064;-72
2023/03/17 09:05:44;;;;;;;2.60;1.88;;;10.70;99.90;;;;;;5110479;28;20058;-73
2023/03/17 09:08:25;;;;;;;2.53;2.00;;;11.00;99.90;;;;;;5109911;28;20051;-70
2023/03/17 09:10:57;;;;;;;3.50;1.92;;;11.00;99.90;;;;;;5088935;29;20055;-71
2023/03/17 09:13:37;;;;;;;8.43;2.65;;;10.70;99.90;;;;;;5098817;29;20501;-69
2023/03/17 09:16:11;;;;;;;2.60;2.08;;;10.60;99.90;;;;;;5109238;28;20078;-74
2023/03/17 09:18:52;;;;;;;5.93;1.98;;;10.50;91.50;;;;;;5125771;28;20050;-74
2023/03/17 09:21:26;;;;;;;3.35;2.17;;;10.80;99.90;;;;;;5107554;29;20047;-73
2023/03/17 09:24:00;;;;;;;2.67;1.83;;;11.30;94.40;;;;;;5109365;29;20057;-75
2023/03/17 09:26:31;;;;;;;2.40;2.00;;;11.20;99.90;;;;;;5101139;29;20051;-72
2023/03/17 09:29:09;;;;;;;3.53;2.20;;;11.40;99.90;;;;;;5110545;28;20477;-73
2023/03/17 09:31:41;;;;;;;4.65;1.85;;;11.50;33.90;;;;;;5090718;29;20251;-75
2023/03/17 09:34:16;;;;;;;4.18;1.83;;;10.90;99.90;;;;;;5120454;28;20031;-74
2023/03/17 09:36:47;;;;;;;2.50;2.20;;;10.90;99.90;;;;;;5154791;28;20796;-69
2023/03/17 09:39:23;;;;;;;3.30;2.10;;;11.30;99.90;;;;;;5110726;28;20043;-74
2023/03/17 09:42:18;;;;;;;3.85;2.08;;;11.40;99.90;;;;;;5094826;29;20474;-72
2023/03/17 09:45:33;;;;;;;3.15;1.73;;;11.40;24.80;;;;;;5113587;29;20553;-74
2023/03/17 09:48:19;;;;;;;3.67;2.20;;;11.70;38.30;;;;;;5096540;29;20141;-75
2023/03/17 09:51:12;;;;;;;2.08;1.52;;;11.70;25.10;;;;;;5112694;29;20047;-72
2023/03/17 09:54:04;;;;;;;4.60;1.92;;;11.50;1.00;;;;;;5112444;28;20057;-74
2023/03/17 09:56:47;;;;;;;3.80;1.90;;;11.30;1.00;;;;;;5102948;28;20047;-73
2023/03/17 09:59:43;;;;;;;1.48;1.38;;;11.30;1.00;;;;;;5128380;28;20037;-73
2023/03/17 10:02:26;;;;;;;2.42;1.40;;;11.30;1.00;;;;;;5094121;28;20073;-71
2023/03/17 10:05:15;;;;;;;2.85;2.30;;;11.10;1.00;;;;;;5120639;28;20061;-74
2023/03/17 10:08:29;;;;;;;5.05;2.33;;;11.10;1.00;;;;;;5101209;28;20415;-74
2023/03/17 10:11:43;;;;;;;1.60;1.50;;;11.20;1.00;;;;;;5101186;28;20050;-74
2023/03/17 10:14:32;;;;;;;2.03;1.58;;;11.00;1.00;;;;;;5132475;28;20673;-73
2023/03/17 10:17:23;;;;;;;2.83;1.98;;;11.00;1.00;;;;;;5129571;28;20142;-74
2023/03/17 10:20:24;;;;;;;2.70;2.13;;;11.10;1.00;;;;;;5117185;28;20695;-69
2023/03/17 10:23:00;;;;;;;6.47;2.08;;;11.20;1.00;;;;;;5111811;28;20051;-75
2023/03/17 10:25:35;;;;;;;4.70;2.55;;;11.30;1.00;;;;;;5116524;28;20471;-72
2023/03/17 10:28:30;;;;;;;8.02;2.63;;;11.60;1.00;;;;;;5102909;28;20564;-71
2023/03/17 10:31:18;;;;;;;;;;;12.20;1.00;;;;;;5099887;28;20053;-71
2023/03/17 10:33:53;;;;;;;1.83;1.63;;;12.00;1.00;;;;;;5131317;28;19918;-74
2023/03/17 10:36:41;;;;;;;2.58;1.90;;;12.20;1.00;;;;;;5116664;28;20057;-74
2023/03/17 10:39:18;;;;;;;2.70;1.80;;;13.10;1.00;;;;;;5116725;28;20060;-71
2023/03/17 10:42:18;;;;;;;3.58;1.92;;;13.20;1.00;;;;;;5116192;28;20664;-70
2023/03/17 10:45:20;;;;;;;2.72;1.83;;;12.80;1.00;;;;;;5118122;28;20027;-72
2023/03/17 10:47:56;;;;;;;5.38;1.70;;;12.70;1.00;;;;;;5100905;28;20282;-75
2023/03/17 10:50:38;;;;;;;4.63;2.03;;;13.20;1.00;;;;;;5099166;28;20053;-74
2023/03/17 10:53:29;;;;;;;2.90;1.85;;;12.50;1.00;;;;;;5101078;28;20057;-73
2023/03/17 10:56:21;;;;;;;3.75;2.20;;;12.70;1.00;;;;;;5115803;28;20052;-73
2023/03/17 10:59:00;;;;;;;2.70;1.75;;;13.70;1.00;;;;;;5100280;28;20243;-76
2023/03/17 11:01:40;;;;;;;2.50;2.30;;;13.20;20.60;;;;;;5114063;28;20053;-70
2023/03/17 11:04:34;;;;;;;2.47;2.25;;;13.30;1.00;;;;;;5089723;28;20052;-73
2023/03/17 11:07:09;;;;;;;2.95;2.10;;;14.10;1.00;;;;;;5127982;28;20047;-68
2023/03/17 11:09:48;;;;;;;5.18;2.15;;;14.30;1.00;;;;;;5084428;28;20050;-71
2023/03/17 11:12:25;;;;;;;2.83;2.10;;;14.70;1.00;;;;;;5147237;28;20042;-74
2023/03/17 11:15:12;;;;;;;5.15;2.10;;;14.10;1.00;;;;;;5127317;28;20505;-70
2023/03/17 11:18:15;;;;;;;3.30;1.67;;;13.70;1.00;;;;;;5131392;28;20042;-74
2023/03/17 11:21:04;;;;;;;3.67;1.90;;;13.80;1.00;;;;;;5130883;28;20031;-72
2023/03/17 11:24:28;;;;;;;3.38;2.13;;;14.00;1.00;;;;;;5131681;28;20050;-71
2023/03/17 11:27:09;;;;;;;6.07;2.10;;;14.10;1.00;;;;;;5065002;29;20176;-72
2023/03/17 11:30:17;;;;;;;2.75;2.17;;;14.20;1.00;;;;;;5056156;29;20048;-71
2023/03/17 11:33:15;;;;;;;5.35;2.13;;;14.20;1.00;;;;;;5040761;29;20585;-71
2023/03/17 11:36:20;;;;;;;3.33;2.53;;;15.10;1.00;;;;;;5085372;29;20050;-72
2023/03/17 11:39:19;;;;;;;3.13;2.13;;;14.60;1.00;;;;;;5047570;29;20054;-73
2023/03/17 11:42:20;;;;;;;3.03;1.75;;;15.10;1.00;;;;;;5069833;29;20692;-71
2023/03/17 11:45:24;;;;;;;3.63;2.50;;;14.80;1.00;;;;;;5056260;29;20060;-73
2023/03/17 11:48:20;;;;;;;2.97;2.38;;;15.10;1.00;;;;;;5071304;29;20280;-73
2023/03/17 11:51:26;;;;;;;2.25;2.05;;;15.80;1.00;;;;;;5070886;29;20063;-71
2023/03/17 11:54:49;;;;;;;2.90;1.98;;;15.40;1.00;;;;;;5054756;29;20087;-72
2023/03/17 11:57:55;;;;;;;1.88;1.70;;;15.30;1.00;;;;;;5083756;28;20043;-75
2023/03/17 12:00:49;;;;;;;2.28;2.05;;;15.40;1.00;;;;;;5129893;28;20068;-72
2023/03/17 12:03:42;;;;;;;2.88;1.88;;;14.50;1.00;;;;;;5120231;28;20046;-72
2023/03/17 12:06:41;;;;;;;2.72;2.00;;;14.80;1.00;;;;;;5116747;28;20051;-71
2023/03/17 12:09:34;;;;;;;2.83;1.80;;;14.80;1.00;;;;;;5111948;28;20049;-72
2023/03/17 12:12:09;;;;;;;2.15;1.95;;;14.30;1.00;;;;;;5108110;28;20039;-71
2023/03/17 12:14:47;;;;;;;4.78;2.00;;;14.60;1.00;;;;;;5109697;28;20484;-70
2023/03/17 12:17:47;;;;;;;4.70;2.28;;;15.30;1.00;;;;;;5094847;29;20035;-68
2023/03/17 12:20:45;;;;;;;2.75;2.40;;;16.80;1.00;;;;;;5091216;29;20046;-70
2023/03/17 12:23:31;;;;;;;3.92;2.38;;;16.40;1.00;;;;;;5087386;28;20336;-73
2023/03/17 12:26:40;;;;;;;2.10;1.67;;;16.20;1.00;;;;;;5121123;28;20280;-73
2023/03/17 12:29:41;;;;;;;2.72;2.42;;;15.70;1.00;;;;;;5115108;28;20053;-73
2023/03/17 12:32:59;;;;;;;2.78;1.95;;;16.00;1.00;;;;;;5098756;29;20038;-70
2023/03/17 12:35:37;;;;;;;4.53;2.67;;;16.70;1.00;;;;;;5105872;28;20046;-72
2023/03/17 12:38:30;;;;;;;3.20;2.30;;;16.70;1.00;;;;;;5129801;28;20062;-69
2023/03/17 12:41:38;;;;;;;2.63;2.17;;;16.30;1.00;;;;;;5093634;29;20609;-73
2023/03/17 12:44:50;;;;;;;3.70;2.00;;;16.00;1.00;;;;;;5134896;28;20058;-72
2023/03/17 12:48:01;;;;;;;2.22;2.00;;;15.50;1.00;;;;;;5124179;28;20047;-75
2023/03/17 12:51:05;;;;;;;3.55;1.95;;;16.10;1.00;;;;;;5125912;28;20038;-73
2023/03/17 12:53:45;;;;;;;2.15;1.75;;;16.40;1.00;;;;;;5117738;28;20041;-68
2023/03/17 12:56:36;;;;;;;2.70;1.83;;;16.40;1.00;;;;;;5096679;28;20055;-72
2023/03/17 12:59:21;;;;;;;2.60;2.38;;;15.30;1.00;;;;;;5103245;29;20479;-72
2023/03/17 13:02:16;;;;;;;2.17;1.85;;;14.50;1.00;;;;;;5105767;29;20035;-71
2023/03/17 13:04:59;;;;;;;2.42;2.15;;;14.80;1.00;;;;;;5129481;28;20300;-74
2023/03/17 13:07:47;;;;;;;3.65;2.42;;;15.30;1.00;;;;;;5136479;28;20041;-69
2023/03/17 13:10:26;;;;;;;3.22;2.45;;;15.40;1.00;;;;;;5118936;28;20031;-73
2023/03/17 13:13:44;;;;;;;2.53;2.10;;;15.70;1.00;;;;;;5100752;28;20053;-73
2023/03/17 13:16:33;;;;;;;6.63;3.17;;;16.40;1.00;;;;;;5115867;28;20039;-72
2023/03/17 13:19:37;;;;;;;3.75;2.15;;;17.10;1.00;;;;;;5114457;28;20053;-75
2023/03/17 13:22:11;;;;;;;2.58;1.98;;;16.70;1.00;;;;;;5091720;28;20050;-72
2023/03/17 13:25:30;;;;;;;3.20;2.10;;;16.30;1.00;;;;;;5101704;29;20053;-73
2023/03/17 13:28:14;;;;;;;2.75;2.55;;;15.70;1.00;;;;;;5116166;28;20030;-73
2023/03/17 13:30:55;;;;;;;4.75;2.60;;;15.20;1.00;;;;;;5112408;28;20670;-71
2023/03/17 13:33:34;;;;;;;4.03;2.70;;;16.10;1.00;;;;;;5131289;28;20268;-74
2023/03/17 13:36:45;;;;;;;3.30;2.38;;;16.50;1.00;;;;;;5104932;29;20034;-72
2023/03/17 13:39:41;;;;;;;3.45;2.70;;;16.40;1.00;;;;;;5145606;28;20165;-71
2023/03/17 13:42:45;;;;;;;3.83;2.53;;;15.90;1.00;;;;;;5085938;28;20800;-69
2023/03/17 13:45:40;;;;;;;3.67;2.80;;;15.50;99.90;;;;;;5101524;28;20049;-72
2023/03/17 13:48:42;;;;;;;6.13;2.45;;;15.60;99.90;;;;;;5132421;28;20347;-70
2023/03/17 13:51:37;;;;;;;5.03;2.92;;;15.90;1.00;;;;;;5098297;29;20040;-68
2023/03/17 13:54:27;;;;;;;4.20;2.85;;;15.80;99.90;;;;;;5089264;29;20043;-68
2023/03/17 13:57:26;;;;;;;9.32;2.60;;;15.90;1.00;;;;;;5100652;28;20050;-71
2023/03/17 14:00:24;;;;;;;3.28;2.67;;;15.40;99.90;;;;;;5102391;28;20047;-76
2023/03/17 14:03:34;;;;;;;4.63;2.30;;;15.10;99.90;;;;;;5091525;29;20359;-69
2023/03/17 14:06:13;;;;;;;4.53;2.55;;;15.90;1.00;;;;;;5090896;29;20063;-70
2023/03/17 14:08:54;;;;;;;5.28;2.85;;;15.90;1.00;;;;;;5114193;28;20285;-70
2023/03/17 14:11:38;;;;;;;3.42;2.85;;;16.00;99.90;;;;;;5085696;29;20047;-71
2023/03/17 14:14:15;;;;;;;4.20;2.88;;;17.00;99.90;;;;;;5126056;28;20058;-70
2023/03/17 14:17:21;;;;;;;4.32;2.83;;;17.20;99.90;;;;;;5112000;28;20097;-71
2023/03/17 14:20:29;;;;;;;3.60;2.28;;;16.80;99.90;;;;;;5120836;28;20047;-71
2023/03/17 14:23:05;;;;;;;4.68;2.65;;;17.20;99.90;;;;;;5085076;29;20536;-71
2023/03/17 14:25:41;;;;;;;4.93;3.08;;;17.40;99.90;;;;;;5063107;29;20301;-70
2023/03/17 14:28:17;;;;;;;4.90;2.97;;;16.60;99.90;;;;;;5086046;29;20079;-72
2023/03/17 14:30:59;;;;;;;3.60;2.72;;;16.60;99.90;;;;;;5067130;29;20043;-76
2023/03/17 14:33:40;;;;;;;3.13;2.80;;;16.70;99.90;;;;;;5075963;29;20055;-70
2023/03/17 14:36:14;;;;;;;6.25;2.40;;;16.70;99.90;;;;;;5083079;29;20533;-69
2023/03/17 14:38:58;;;;;;;3.53;2.70;;;15.90;99.90;;;;;;5075576;29;20578;-70
2023/03/17 14:41:36;;;;;;;4.95;2.60;;;16.50;99.90;;;;;;5081624;29;20050;-70
2023/03/17 14:44:11;;;;;;;3.42;2.67;;;15.80;99.90;;;;;;5095581;29;20058;-71
2023/03/17 14:46:45;;;;;;;4.80;2.60;;;15.60;99.90;;;;;;5078435;29;20543;-74
2023/03/17 14:49:22;;;;;;;4.32;3.03;;;15.90;99.90;;;;;;5091135;29;20039;-72
2023/03/17 14:51:57;;;;;;;4.07;2.85;;;16.40;99.90;;;;;;5074100;29;20040;-73
2023/03/17 14:54:36;;;;;;;3.22;2.60;;;15.70;99.90;;;;;;5090175;29;20267;-72
2023/03/17 14:57:16;;;;;;;5.43;2.85;;;15.20;99.90;;;;;;5074884;29;20058;-74
2023/03/17 15:00:20;;;;;;;2.47;2.13;;;15.30;99.90;;;;;;5044051;29;20051;-72
2023/03/17 15:03:16;;;;;;;6.55;3.03;;;15.30;99.90;;;;;;5125375;28;20244;-68
2023/03/17 15:05:48;;;;;;;6.50;2.95;;;16.00;99.90;;;;;;5131037;28;20051;-70
2023/03/17 15:08:42;;;;;;;2.97;2.50;;;16.00;99.90;;;;;;5101702;28;20039;-71
2023/03/17 15:11:35;;;;;;;3.60;3.00;;;15.70;99.90;;;;;;5132444;28;20033;-74
2023/03/17 15:14:32;;;;;;;5.13;2.70;;;15.50;99.90;;;;;;5099294;28;20045;-67
2023/03/17 15:17:15;;;;;;;4.03;2.70;;;14.90;99.90;;;;;;5098056;28;20054;-72
2023/03/17 15:19:53;;;;;;;3.20;2.42;;;14.70;99.90;;;;;;5116777;28;20030;-70
2023/03/17 15:22:44;;;;;;;6.13;3.38;;;14.40;99.90;;;;;;5129818;28;20034;-71
2023/03/17 15:25:25;;;;;;;3.47;2.22;;;13.80;99.90;;;;;;5130304;28;20556;-74
2023/03/17 15:28:00;;;;;;;4.50;2.10;;;13.50;99.90;;;;;;5115353;28;20342;-72
2023/03/17 15:30:34;;;;;;;4.20;3.15;;;13.50;99.90;;;;;;5131367;28;20038;-70
2023/03/17 15:33:25;;;;;;;5.47;3.25;;;13.40;99.90;;;;;;5101209;28;20049;-72
2023/03/17 15:36:01;;;;;;;3.85;2.60;;;13.60;99.90;;;;;;5133998;28;20067;-72
2023/03/17 15:38:37;;;;;;;4.88;2.55;;;13.30;99.90;;;;;;5114633;28;20037;-70
2023/03/17 15:41:17;;;;;;;5.13;3.30;;;12.70;99.90;;;;;;5134276;28;20054;-68
2023/03/17 15:43:54;;;;;;;3.70;2.75;;;12.40;99.90;;;;;;5119438;28;20030;-73
2023/03/17 15:46:32;;;;;;;4.07;2.45;;;12.20;99.90;;;;;;5134260;28;20050;-72
2023/03/17 15:49:12;;;;;;;3.58;2.53;;;12.20;99.90;;;;;;5151710;28;20042;-68
2023/03/17 15:51:55;;;;;;;4.60;3.05;;;12.10;99.90;;;;;;5136043;28;20042;-70
2023/03/17 15:54:31;;;;;;;3.20;2.15;;;12.00;99.90;;;;;;5136327;28;20042;-68
2023/03/17 15:57:03;;;;;;;3.22;2.58;;;11.90;99.90;;;;;;5093292;28;20042;-72
2023/03/17 15:59:42;;;;;;;6.55;2.58;;;11.80;99.90;;;;;;5112925;28;20058;-72
2023/03/17 16:02:34;;;;;;;4.93;2.50;;;11.70;99.90;;;;;;5111685;28;20042;-70
2023/03/17 16:05:28;;;;;;;5.80;2.30;;;11.60;99.90;;;;;;5101462;28;20099;-71
2023/03/17 16:08:02;;;;;;;4.10;2.47;;;11.40;99.90;;;;;;5121352;28;20022;-71
2023/03/17 16:10:41;;;;;;;3.00;2.28;;;11.30;99.90;;;;;;5128966;28;20043;-70
2023/03/17 16:13:17;;;;;;;2.97;2.30;;;11.20;99.90;;;;;;5098760;28;20040;-72
2023/03/17 16:15:59;;;;;;;6.57;3.10;;;11.10;99.90;;;;;;5113490;28;20046;-72
2023/03/17 16:18:39;;;;;;;4.00;2.53;;;11.00;99.90;;;;;;5113289;28;20499;-73
2023/03/17 16:21:16;;;;;;;3.25;2.47;;;10.90;99.90;;;;;;5114424;28;20038;-73
2023/03/17 16:23:51;;;;;;;7.60;2.42;;;10.90;99.90;;;;;;5114908;28;20046;-73
2023/03/17 16:26:28;;;;;;;4.78;2.90;;;10.80;99.90;;;;;;5113802;28;20035;-70
2023/03/17 16:29:11;;;;;;;5.20;2.55;;;10.80;99.90;;;;;;5083047;28;20274;-70
2023/03/17 16:31:54;;;;;;;3.47;2.63;;;10.70;99.90;;;;;;5143848;28;20045;-70
2023/03/17 16:34:34;;;;;;;4.28;2.47;;;10.60;99.90;;;;;;5128814;28;20463;-73
2023/03/17 16:37:15;;;;;;;2.85;2.55;;;10.50;99.90;;;;;;5125245;28;20030;-73
2023/03/17 16:39:55;;;;;;;3.17;2.13;;;10.40;99.90;;;;;;5097910;28;20035;-72
2023/03/17 16:42:31;;;;;;;4.05;2.65;;;10.40;99.90;;;;;;5134143;28;20061;-72
2023/03/17 16:45:03;;;;;;;3.80;2.97;;;10.30;99.90;;;;;;5116279;28;20062;-73
2023/03/17 16:47:37;;;;;;;3.00;1.90;;;10.20;99.90;;;;;;5101482;28;20046;-71
2023/03/17 16:50:21;;;;;;;10.00;2.90;;;10.20;99.90;;;;;;5116826;28;20023;-71
2023/03/17 16:52:56;;;;;;;5.32;2.90;;;10.10;99.90;;;;;;5128001;28;20038;-70
2023/03/17 16:55:30;;;;;;;4.97;2.70;;;10.00;99.90;;;;;;5123942;28;20055;-72
2023/03/17 16:58:23;;;;;;;4.90;2.63;;;10.00;99.90;;;;;;5097477;28;20475;-72
2023/03/17 17:01:03;;;;;;;4.55;2.70;;;9.90;99.90;;;;;;5098629;28;20057;-68
2023/03/17 17:03:38;;;;;;;4.55;2.97;;;9.80;99.90;;;;;;5098557;28;20046;-72
2023/03/17 17:06:16;;;;;;;4.30;2.88;;;9.60;99.90;;;;;;5124769;28;20055;-64
2023/03/17 17:08:53;;;;;;;5.10;3.53;;;9.60;99.90;;;;;;5144089;28;20230;-63
2023/03/17 17:11:27;;;;;;;5.68;3.00;;;9.40;99.90;;;;;;5128323;28;20042;-63
2023/03/17 17:14:01;;;;;;;7.95;3.53;;;9.40;99.90;;;;;;5159723;28;20308;-64
2023/03/17 17:16:41;;;;;;;4.18;3.13;;;9.30;99.90;;;;;;5159398;28;20319;-63
2023/03/17 17:19:21;;;;;;;5.82;2.50;;;9.30;99.90;;;;;;5144979;28;20049;-64
2023/03/17 17:21:53;;;;;;;4.68;2.63;;;9.20;99.90;;;;;;5143126;28;20042;-64